createdAt,value
2018-01-12T00:02:18.028Z,21.77
2018-01-12T00:04:44.503Z,14.40
2018-01-12T00:07:10.702Z,14.20
2018-01-12T00:09:37.048Z,15.40
2018-01-12T00:12:03.327Z,15.70
2018-01-12T00:14:30.879Z,15.10
2018-01-12T00:16:57.817Z,15.10
2018-01-12T00:19:24.830Z,13.80
2018-01-12T00:21:52.995Z,14.33
2018-01-12T00:24:20.767Z,13.30
2018-01-12T00:26:48.426Z,11.23
2018-01-12T00:29:14.593Z,11.33
2018-01-12T00:31:40.818Z,10.73
2018-01-12T00:34:07.035Z,8.63
2018-01-12T00:36:34.005Z,9.50
2018-01-12T00:39:00.256Z,8.97
2018-01-12T00:41:26.613Z,9.40
2018-01-12T00:43:52.859Z,10.10
2018-01-12T00:46:19.815Z,8.80
2018-01-12T00:48:46.069Z,7.70
2018-01-12T00:51:12.320Z,7.73
2018-01-12T00:53:38.524Z,9.13
2018-01-12T00:56:04.734Z,9.03
2018-01-12T00:58:30.954Z,8.10
2018-01-12T01:00:57.140Z,7.87
2018-01-12T01:03:23.445Z,7.53
2018-01-12T01:05:49.705Z,7.57
2018-01-12T01:08:15.920Z,7.30
2018-01-12T01:10:42.810Z,8.73
2018-01-12T01:13:09.192Z,8.63
2018-01-12T01:15:35.301Z,9.63
2018-01-12T01:18:01.529Z,12.33
2018-01-12T01:20:27.787Z,16.67
2018-01-12T01:22:54.729Z,15.73
2018-01-12T01:25:21.592Z,15.60
2018-01-12T01:27:47.981Z,15.43
2018-01-12T01:30:14.170Z,16.20
2018-01-12T01:32:40.340Z,15.43
2018-01-12T01:35:06.508Z,15.50
2018-01-12T01:37:32.693Z,14.20
2018-01-12T01:39:58.905Z,14.30
2018-01-12T01:42:25.098Z,14.80
2018-01-12T01:44:51.268Z,14.30
2018-01-12T01:47:18.207Z,11.77
2018-01-12T01:49:45.258Z,12.30
2018-01-12T01:52:11.634Z,11.87
2018-01-12T01:54:37.847Z,9.83
2018-01-12T01:57:04.096Z,10.60
2018-01-12T01:59:30.198Z,10.30
2018-01-12T02:01:56.546Z,11.10
2018-01-12T02:04:22.952Z,9.77
2018-01-12T02:06:49.049Z,9.50
2018-01-12T02:09:16.015Z,7.27
2018-01-12T02:11:42.976Z,8.17
2018-01-12T02:14:09.140Z,7.30
2018-01-12T02:16:35.315Z,7.73
2018-01-12T02:19:02.161Z,6.83
2018-01-12T02:21:29.048Z,6.50
2018-01-12T02:23:55.233Z,7.17
2018-01-12T02:26:21.410Z,6.90
2018-01-12T02:28:47.593Z,6.50
2018-01-12T02:31:13.696Z,6.57
2018-01-12T02:33:40.841Z,5.80
2018-01-12T02:36:07.734Z,5.70
2018-01-12T02:38:33.946Z,5.50
2018-01-12T02:41:00.127Z,4.87
2018-01-12T02:43:27.121Z,4.47
2018-01-12T02:45:53.322Z,4.50
2018-01-12T02:48:19.412Z,4.90
2018-01-12T02:50:45.627Z,4.63
2018-01-12T02:53:11.872Z,5.30
2018-01-12T02:55:38.137Z,4.30
2018-01-12T02:58:04.457Z,4.80
2018-01-12T03:00:30.817Z,4.30
2018-01-12T03:02:57.038Z,4.60
2018-01-12T03:05:23.179Z,4.27
2018-01-12T03:07:49.457Z,4.60
2018-01-12T03:10:16.366Z,4.27
2018-01-12T03:12:44.067Z,4.20
2018-01-12T03:15:10.211Z,4.43
2018-01-12T03:17:36.403Z,3.57
2018-01-12T03:20:03.295Z,4.70
2018-01-12T03:22:29.503Z,4.03
2018-01-12T03:24:55.627Z,3.97
2018-01-12T03:27:21.846Z,3.67
2018-01-12T03:29:47.998Z,3.73
2018-01-12T03:32:14.179Z,3.70
2018-01-12T03:34:40.465Z,3.40
2018-01-12T03:37:06.688Z,3.23
2018-01-12T03:39:32.866Z,3.00
2018-01-12T03:41:59.042Z,3.00
2018-01-12T03:44:25.311Z,3.10
2018-01-12T03:46:52.261Z,3.87
2018-01-12T03:49:19.194Z,3.10
2018-01-12T03:51:46.072Z,3.77
2018-01-12T03:54:12.333Z,3.60
2018-01-12T03:56:38.549Z,4.30
2018-01-12T03:59:04.736Z,3.70
2018-01-12T04:01:30.928Z,4.27
2018-01-12T04:03:57.924Z,3.83
2018-01-12T04:06:24.185Z,4.37
2018-01-12T04:08:50.409Z,3.80
2018-01-12T04:11:16.580Z,3.67
2018-01-12T04:13:42.960Z,4.27
2018-01-12T04:16:09.189Z,4.33
2018-01-12T04:18:35.298Z,4.20
2018-01-12T04:21:01.479Z,4.20
2018-01-12T04:23:28.351Z,4.30
2018-01-12T04:25:54.574Z,3.67
2018-01-12T04:28:20.687Z,4.10
2018-01-12T04:30:46.883Z,4.43
2018-01-12T04:33:12.991Z,3.90
2018-01-12T04:35:39.227Z,3.90
2018-01-12T04:38:05.347Z,3.40
2018-01-12T04:40:31.564Z,3.27
2018-01-12T04:42:57.787Z,3.80
2018-01-12T04:45:23.980Z,3.77
2018-01-12T04:47:50.080Z,3.83
2018-01-12T04:50:16.256Z,3.67
2018-01-12T04:52:42.412Z,3.50
2018-01-12T04:55:09.269Z,4.03
2018-01-12T04:57:36.256Z,3.80
2018-01-12T05:00:02.471Z,3.87
2018-01-12T05:02:28.810Z,4.70
2018-01-12T05:04:55.012Z,4.40
2018-01-12T05:07:21.208Z,3.93
2018-01-12T05:09:48.075Z,3.40
2018-01-12T05:12:14.250Z,4.27
2018-01-12T05:14:40.462Z,4.03
2018-01-12T05:17:06.676Z,4.20
2018-01-12T05:19:32.903Z,4.47
2018-01-12T05:21:59.054Z,4.90
2018-01-12T05:24:25.232Z,4.60
2018-01-12T05:26:51.450Z,4.17
2018-01-12T05:29:17.644Z,4.50
2018-01-12T05:31:43.856Z,4.90
2018-01-12T05:34:10.054Z,5.27
2018-01-12T05:36:36.231Z,4.87
2018-01-12T05:39:02.412Z,4.77
2018-01-12T05:41:28.553Z,4.67
2018-01-12T05:43:54.783Z,4.90
2018-01-12T05:46:20.901Z,4.77
2018-01-12T05:48:47.188Z,5.23
2018-01-12T05:51:13.320Z,5.17
2018-01-12T05:53:39.736Z,4.90
2018-01-12T05:56:05.907Z,5.47
2018-01-12T05:58:32.116Z,5.37
2018-01-12T06:01:10.611Z,4.60
2018-01-12T06:03:49.114Z,5.60
2018-01-12T06:06:17.013Z,5.40
2018-01-12T06:08:43.166Z,4.77
2018-01-12T06:11:09.404Z,5.90
2018-01-12T06:13:35.719Z,4.67
2018-01-12T06:16:01.919Z,4.90
2018-01-12T06:18:28.041Z,5.13
2018-01-12T06:20:54.263Z,5.43
2018-01-12T06:23:20.562Z,4.27
2018-01-12T06:25:47.412Z,5.30
2018-01-12T06:28:14.313Z,6.70
2018-01-12T06:30:40.433Z,8.67
2018-01-12T06:33:06.644Z,8.47
2018-01-12T06:35:32.791Z,8.60
2018-01-12T06:37:58.956Z,7.27
2018-01-12T06:40:25.145Z,7.97
2018-01-12T06:42:51.410Z,9.47
2018-01-12T06:45:17.607Z,9.60
2018-01-12T06:47:43.787Z,7.97
2018-01-12T06:50:09.953Z,7.97
2018-01-12T06:52:36.156Z,8.10
2018-01-12T06:55:02.252Z,9.33
2018-01-12T06:57:28.472Z,9.10
2018-01-12T06:59:54.917Z,9.43
2018-01-12T07:02:21.194Z,8.77
2018-01-12T07:04:47.523Z,6.87
2018-01-12T07:07:14.182Z,7.80
2018-01-12T07:09:40.570Z,7.03
2018-01-12T07:12:07.179Z,7.50
2018-01-12T07:14:33.569Z,7.63
2018-01-12T07:17:00.460Z,8.27
2018-01-12T07:19:26.662Z,7.60
2018-01-12T07:22:05.273Z,8.60
2018-01-12T07:24:31.505Z,8.30
2018-01-12T07:26:57.897Z,9.40
2018-01-12T07:29:24.084Z,9.60
2018-01-12T07:31:50.263Z,10.73
2018-01-12T07:34:17.155Z,10.30
2018-01-12T07:36:43.387Z,10.23
2018-01-12T07:39:09.592Z,10.30
2018-01-12T07:41:35.742Z,9.90
2018-01-12T07:44:01.942Z,11.53
2018-01-12T07:46:28.138Z,12.07
2018-01-12T07:48:55.060Z,11.23
2018-01-12T07:51:21.226Z,14.57
2018-01-12T07:53:47.494Z,19.03
2018-01-12T07:56:13.657Z,17.43
2018-01-12T07:58:40.602Z,17.57
2018-01-12T08:01:13.508Z,16.90
2018-01-12T08:03:39.796Z,15.63
2018-01-12T08:06:05.937Z,17.50
2018-01-12T08:08:32.835Z,18.20
2018-01-12T08:10:58.947Z,19.03
2018-01-12T08:13:25.186Z,19.90
2018-01-12T08:15:51.357Z,19.37
2018-01-12T08:18:18.340Z,15.60
2018-01-12T08:20:44.539Z,13.93
2018-01-12T08:23:10.823Z,15.00
2018-01-12T08:25:37.010Z,16.07
2018-01-12T08:28:03.215Z,14.80
2018-01-12T08:30:30.190Z,15.90
2018-01-12T08:32:56.358Z,17.80
2018-01-12T08:35:22.534Z,18.33
2018-01-12T08:37:48.744Z,17.80
2018-01-12T08:40:14.918Z,16.23
2018-01-12T08:42:41.084Z,21.40
2018-01-12T08:45:08.277Z,20.10
2018-01-12T08:47:34.453Z,20.83
2018-01-12T08:50:01.398Z,20.97
2018-01-12T08:52:28.355Z,22.90
2018-01-12T08:54:55.247Z,20.90
2018-01-12T08:57:21.361Z,22.97
2018-01-12T08:59:47.558Z,23.20
2018-01-12T09:02:13.702Z,22.30
2018-01-12T09:04:39.900Z,19.40
2018-01-12T09:07:06.088Z,18.67
2018-01-12T09:09:33.029Z,20.37
2018-01-12T09:11:59.301Z,19.47
2018-01-12T09:14:37.804Z,18.43
2018-01-12T09:17:05.787Z,19.20
2018-01-12T09:19:45.988Z,21.70
2018-01-12T09:22:12.148Z,19.13
2018-01-12T09:24:44.074Z,22.07
2018-01-12T09:27:10.202Z,24.43
2018-01-12T09:29:36.462Z,32.90
2018-01-12T09:32:03.418Z,37.43
2018-01-12T09:34:42.107Z,27.97
2018-01-12T09:37:08.225Z,24.57
2018-01-12T09:39:41.650Z,24.50
2018-01-12T09:42:08.573Z,24.90
2018-01-12T09:44:34.915Z,26.47
2018-01-12T09:47:14.502Z,24.63
2018-01-12T09:49:41.617Z,23.80
2018-01-12T09:52:07.909Z,23.73
2018-01-12T09:54:34.098Z,22.17
2018-01-12T09:57:00.252Z,24.40
2018-01-12T09:59:29.242Z,22.00
2018-01-12T10:01:55.535Z,22.50
2018-01-12T10:04:21.720Z,23.80
2018-01-12T10:06:48.710Z,22.63
2018-01-12T10:09:14.887Z,22.37
2018-01-12T10:11:41.108Z,20.47
2018-01-12T10:14:07.323Z,22.23
2018-01-12T10:16:33.442Z,20.37
2018-01-12T10:18:59.663Z,22.33
2018-01-12T10:21:38.200Z,20.20
2018-01-12T10:24:04.367Z,23.70
2018-01-12T10:26:30.537Z,27.43
2018-01-12T10:29:05.792Z,28.07
2018-01-12T10:31:50.973Z,31.47
2018-01-12T10:34:22.905Z,28.60
2018-01-12T10:36:54.182Z,28.87
2018-01-12T10:39:21.117Z,32.00
2018-01-12T10:41:59.526Z,32.07
2018-01-12T10:44:26.297Z,31.87
2018-01-12T10:47:05.206Z,31.90
2018-01-12T10:49:32.267Z,34.00
2018-01-12T10:52:04.900Z,30.63
2018-01-12T10:54:31.432Z,31.47
2018-01-12T10:56:57.765Z,28.23
2018-01-12T10:59:24.001Z,29.03
2018-01-12T11:01:51.189Z,28.97
2018-01-12T11:04:17.398Z,27.90
2018-01-12T11:06:43.901Z,30.30
2018-01-12T11:09:10.273Z,29.40
2018-01-12T11:11:36.640Z,30.03
2018-01-12T11:14:02.943Z,27.83
2018-01-12T11:16:29.190Z,42.50
2018-01-12T11:18:55.403Z,35.90
2018-01-12T11:21:21.583Z,36.93
2018-01-12T11:23:47.870Z,37.57
2018-01-12T11:26:14.317Z,36.20
2018-01-12T11:28:40.704Z,34.23
2018-01-12T11:31:07.082Z,34.57
2018-01-12T11:33:33.352Z,34.47
2018-01-12T11:35:59.592Z,32.17
2018-01-12T11:38:25.771Z,31.47
2018-01-12T11:40:52.045Z,28.10
2018-01-12T11:43:18.223Z,28.53
2018-01-12T11:45:44.507Z,29.40
2018-01-12T11:48:10.808Z,30.17
2018-01-12T11:50:37.889Z,26.13
2018-01-12T11:53:04.118Z,25.90
2018-01-12T11:55:30.327Z,30.17
2018-01-12T11:57:56.612Z,30.27
2018-01-12T12:00:22.787Z,30.47
2018-01-12T12:02:49.099Z,29.80
2018-01-12T12:05:15.362Z,30.00
2018-01-12T12:07:41.628Z,39.67
2018-01-12T12:10:08.521Z,43.00
2018-01-12T12:12:34.772Z,42.47
2018-01-12T12:15:01.150Z,35.30
2018-01-12T12:17:28.125Z,34.50
2018-01-12T12:19:54.656Z,29.70
2018-01-12T12:22:21.098Z,34.90
2018-01-12T12:24:47.414Z,31.07
2018-01-12T12:27:13.566Z,32.50
2018-01-12T12:29:39.839Z,28.77
2018-01-12T12:32:06.138Z,31.00
2018-01-12T12:34:32.280Z,29.83
2018-01-12T12:36:59.273Z,35.07
2018-01-12T12:39:25.616Z,29.30
2018-01-12T12:41:51.810Z,31.10
2018-01-12T12:44:18.176Z,30.63
2018-01-12T12:46:44.445Z,31.67
2018-01-12T12:49:11.485Z,31.30
2018-01-12T12:51:38.540Z,29.80
2018-01-12T12:54:05.531Z,29.63
2018-01-12T12:56:31.768Z,28.67
2018-01-12T12:58:58.101Z,27.63
2018-01-12T13:01:24.296Z,32.70
2018-01-12T13:03:50.558Z,28.70
2018-01-12T13:06:16.890Z,31.03
2018-01-12T13:08:43.072Z,32.50
2018-01-12T13:11:09.297Z,29.43
2018-01-12T13:13:35.506Z,46.73
2018-01-12T13:16:01.776Z,34.00
2018-01-12T13:18:28.013Z,63.70
2018-01-12T13:20:54.267Z,43.97
2018-01-12T13:23:20.578Z,49.33
2018-01-12T13:25:46.689Z,30.87
2018-01-12T13:28:12.896Z,30.63
2018-01-12T13:30:39.089Z,31.90
2018-01-12T13:33:06.013Z,32.13
2018-01-12T13:35:32.180Z,33.00
2018-01-12T13:37:58.406Z,67.13
2018-01-12T13:40:24.628Z,53.37
2018-01-12T13:42:51.264Z,50.93
2018-01-12T13:45:17.612Z,36.57
2018-01-12T13:47:43.846Z,49.30
2018-01-12T13:50:10.100Z,58.63
2018-01-12T13:52:36.311Z,42.93
2018-01-12T13:55:02.425Z,39.50
2018-01-12T13:57:28.622Z,37.77
2018-01-12T13:59:54.853Z,38.40
2018-01-12T14:02:21.090Z,37.17
2018-01-12T14:04:47.370Z,37.93
2018-01-12T14:07:13.636Z,42.80
2018-01-12T14:09:39.826Z,35.17
2018-01-12T14:12:05.990Z,43.33
2018-01-12T14:14:32.747Z,37.00
2018-01-12T14:16:59.000Z,42.27
2018-01-12T14:19:25.149Z,39.57
2018-01-12T14:21:52.072Z,41.90
2018-01-12T14:24:18.207Z,44.30
2018-01-12T14:26:44.461Z,42.10
2018-01-12T14:29:10.632Z,44.40
2018-01-12T14:31:38.533Z,38.03
2018-01-12T14:34:04.800Z,35.40
2018-01-12T14:36:31.208Z,33.43
2018-01-12T14:38:58.187Z,47.33
2018-01-12T14:41:24.465Z,36.30
2018-01-12T14:43:51.501Z,29.27
2018-01-12T14:46:18.423Z,29.07
2018-01-12T14:48:44.659Z,33.50
2018-01-12T14:51:11.846Z,39.07
2018-01-12T14:53:38.762Z,36.20
2018-01-12T14:56:04.973Z,32.10
2018-01-12T14:58:31.193Z,37.93
2018-01-12T15:00:57.356Z,40.43
2018-01-12T15:03:24.292Z,39.63
2018-01-12T15:05:50.477Z,41.60
2018-01-12T15:08:16.856Z,34.37
2018-01-12T15:10:43.765Z,38.10
2018-01-12T15:13:09.959Z,32.10
2018-01-12T15:15:36.258Z,26.40
2018-01-12T15:18:03.309Z,30.77
2018-01-12T15:20:30.334Z,105.40
2018-01-12T15:22:56.533Z,43.73
2018-01-12T15:25:22.839Z,46.37
2018-01-12T15:27:49.057Z,75.80
2018-01-12T15:30:15.369Z,101.17
2018-01-12T15:32:42.344Z,81.87
2018-01-12T15:35:08.681Z,39.53
2018-01-12T15:37:34.920Z,33.13
2018-01-12T15:40:01.316Z,34.37
2018-01-12T15:42:27.656Z,33.67
2018-01-12T15:44:53.883Z,29.30
2018-01-12T15:47:20.161Z,30.20
2018-01-12T15:49:46.560Z,31.13
2018-01-12T15:52:12.756Z,42.67
2018-01-12T15:54:39.855Z,35.70
2018-01-12T15:57:06.490Z,78.90
2018-01-12T15:59:32.697Z,35.57
2018-01-12T16:01:59.003Z,45.93
2018-01-12T16:04:25.285Z,37.77
2018-01-12T16:06:52.386Z,33.60
2018-01-12T16:09:18.646Z,62.57
2018-01-12T16:11:44.832Z,33.77
2018-01-12T16:14:11.050Z,33.13
2018-01-12T16:16:37.294Z,31.23
2018-01-12T16:19:03.576Z,33.30
2018-01-12T16:21:30.469Z,29.23
2018-01-12T16:23:56.704Z,32.17
2018-01-12T16:26:22.912Z,30.63
2018-01-12T16:28:49.340Z,32.53
2018-01-12T16:31:15.486Z,32.23
2018-01-12T16:33:41.828Z,29.87
2018-01-12T16:36:08.737Z,27.73
2018-01-12T16:38:34.958Z,25.23
2018-01-12T16:41:01.122Z,25.50
2018-01-12T16:43:28.433Z,28.43
2018-01-12T16:45:54.759Z,25.20
2018-01-12T16:48:21.206Z,27.27
2018-01-12T16:50:47.413Z,30.60
2018-01-12T16:53:13.596Z,30.43
2018-01-12T16:55:39.856Z,28.23
2018-01-12T16:58:06.769Z,33.80
2018-01-12T17:00:33.023Z,35.53
2018-01-12T17:03:00.041Z,41.97
2018-01-12T17:05:26.255Z,32.00
2018-01-12T17:07:52.383Z,30.63
2018-01-12T17:10:19.355Z,27.80
2018-01-12T17:12:46.299Z,29.40
2018-01-12T17:15:13.174Z,31.80
2018-01-12T17:17:39.372Z,26.77
2018-01-12T17:20:06.261Z,29.30
2018-01-12T17:22:32.425Z,29.80
2018-01-12T17:24:58.781Z,28.43
2018-01-12T17:27:24.918Z,28.10
2018-01-12T17:29:51.074Z,31.33
2018-01-12T17:32:17.219Z,28.70
2018-01-12T17:34:44.173Z,30.50
2018-01-12T17:37:11.067Z,31.30
2018-01-12T17:39:37.255Z,29.53
2018-01-12T17:42:04.229Z,31.10
2018-01-12T17:44:30.511Z,29.60
2018-01-12T17:46:56.734Z,29.10
2018-01-12T17:49:22.924Z,27.00
2018-01-12T17:51:49.110Z,29.50
2018-01-12T17:54:16.099Z,32.20
2018-01-12T17:56:42.327Z,31.80
2018-01-12T17:59:08.450Z,35.70
2018-01-12T18:01:34.750Z,36.00
2018-01-12T18:04:00.888Z,33.97
2018-01-12T18:06:27.029Z,28.20
2018-01-12T18:08:53.249Z,31.27
2018-01-12T18:11:19.454Z,30.50
2018-01-12T18:13:45.645Z,31.17
2018-01-12T18:16:11.818Z,31.73
2018-01-12T18:18:37.995Z,32.23
2018-01-12T18:21:04.160Z,33.87
2018-01-12T18:23:30.422Z,29.77
2018-01-12T18:25:56.596Z,25.23
2018-01-12T18:28:23.598Z,23.33
2018-01-12T18:30:49.843Z,22.87
2018-01-12T18:33:16.072Z,19.87
2018-01-12T18:35:42.357Z,21.13
2018-01-12T18:38:08.513Z,21.10
2018-01-12T18:40:34.682Z,20.47
2018-01-12T18:43:01.069Z,19.10
2018-01-12T18:45:27.318Z,18.13
2018-01-12T18:47:54.323Z,17.57
2018-01-12T18:50:21.058Z,18.60
2018-01-12T18:52:47.372Z,19.37
2018-01-12T18:55:13.688Z,18.07
2018-01-12T18:57:40.598Z,20.53
2018-01-12T19:00:07.474Z,19.53
2018-01-12T19:02:33.779Z,20.00
2018-01-12T19:05:00.767Z,21.03
2018-01-12T19:07:27.016Z,19.67
2018-01-12T19:09:53.352Z,19.30
2018-01-12T19:12:19.789Z,19.97
2018-01-12T19:14:46.178Z,19.70
2018-01-12T19:17:12.420Z,18.97
2018-01-12T19:19:38.642Z,19.43
2018-01-12T19:22:04.825Z,19.87
2018-01-12T19:24:31.909Z,19.07
2018-01-12T19:26:58.128Z,18.53
2018-01-12T19:29:24.351Z,18.67
2018-01-12T19:31:50.588Z,16.73
2018-01-12T19:34:16.809Z,17.60
2018-01-12T19:36:42.988Z,17.30
2018-01-12T19:39:09.268Z,18.13
2018-01-12T19:41:36.496Z,17.20
2018-01-12T19:44:02.789Z,18.00
2018-01-12T19:46:29.172Z,21.03
2018-01-12T19:48:55.447Z,19.30
2018-01-12T19:51:21.711Z,20.67
2018-01-12T19:53:47.896Z,21.60
2018-01-12T19:56:14.177Z,20.63
2018-01-12T19:58:40.508Z,22.50
2018-01-12T20:01:08.035Z,20.67
2018-01-12T20:03:35.078Z,22.00
2018-01-12T20:06:01.991Z,19.97
2018-01-12T20:08:28.115Z,22.77
2018-01-12T20:10:54.481Z,22.40
2018-01-12T20:13:21.488Z,20.80
2018-01-12T20:15:48.690Z,20.33
2018-01-12T20:18:14.916Z,20.93
2018-01-12T20:20:41.174Z,21.10
2018-01-12T20:23:07.391Z,21.60
2018-01-12T20:25:33.739Z,20.23
2018-01-12T20:27:59.924Z,19.90
2018-01-12T20:30:26.190Z,20.90
2018-01-12T20:32:52.518Z,19.90
2018-01-12T20:35:18.688Z,18.90
2018-01-12T20:37:45.668Z,19.47
2018-01-12T20:40:11.941Z,20.67
2018-01-12T20:42:38.060Z,21.70
2018-01-12T20:45:04.282Z,24.60
2018-01-12T20:47:30.534Z,23.93
2018-01-12T20:49:57.494Z,25.57
2018-01-12T20:52:23.638Z,25.47
2018-01-12T20:54:50.037Z,26.00
2018-01-12T20:57:17.165Z,21.40
2018-01-12T20:59:43.503Z,23.87
2018-01-12T21:02:09.834Z,23.33
2018-01-12T21:04:36.835Z,22.30
2018-01-12T21:07:03.068Z,21.77
2018-01-12T21:09:29.265Z,22.33
2018-01-12T21:11:55.424Z,22.27
2018-01-12T21:14:21.745Z,22.30
2018-01-12T21:16:47.946Z,22.23
2018-01-12T21:19:14.152Z,21.70
2018-01-12T21:21:41.082Z,20.90
2018-01-12T21:24:07.286Z,20.33
2018-01-12T21:26:33.541Z,21.03
2018-01-12T21:29:00.567Z,22.57
2018-01-12T21:31:27.608Z,22.27
2018-01-12T21:33:53.913Z,21.50
2018-01-12T21:36:20.190Z,22.33
2018-01-12T21:38:47.227Z,22.90
2018-01-12T21:41:13.605Z,21.97
2018-01-12T21:43:40.032Z,22.60
2018-01-12T21:46:06.289Z,23.83
2018-01-12T21:48:32.679Z,22.87
2018-01-12T21:50:58.869Z,21.50
2018-01-12T21:53:25.925Z,22.47
2018-01-12T21:55:52.827Z,25.03
2018-01-12T21:58:19.173Z,25.10
2018-01-12T22:00:46.108Z,24.77
2018-01-12T22:03:12.535Z,23.93
2018-01-12T22:05:38.892Z,23.90
2018-01-12T22:08:05.211Z,24.40
2018-01-12T22:10:32.691Z,22.07
2018-01-12T22:12:59.688Z,26.43
2018-01-12T22:15:26.008Z,23.90
2018-01-12T22:17:52.213Z,25.50
2018-01-12T22:20:18.505Z,24.00
2018-01-12T22:22:44.812Z,24.40
2018-01-12T22:25:11.282Z,23.73
2018-01-12T22:27:38.148Z,24.50
2018-01-12T22:30:04.450Z,23.27
2018-01-12T22:32:31.469Z,25.90
2018-01-12T22:34:57.658Z,27.10
2018-01-12T22:37:23.880Z,26.90
2018-01-12T22:39:50.035Z,28.43
2018-01-12T22:42:16.359Z,30.33
2018-01-12T22:44:42.682Z,25.87
2018-01-12T22:47:08.812Z,25.70
2018-01-12T22:49:35.071Z,24.20
2018-01-12T22:52:01.335Z,24.30
2018-01-12T22:54:27.726Z,25.57
2018-01-12T22:56:54.267Z,25.80
2018-01-12T22:59:20.450Z,23.23
2018-01-12T23:01:46.712Z,24.37
2018-01-12T23:04:12.931Z,22.33
2018-01-12T23:06:39.110Z,24.27
2018-01-12T23:09:05.490Z,22.97
2018-01-12T23:11:31.799Z,22.33
2018-01-12T23:13:58.539Z,21.83
2018-01-12T23:16:24.653Z,22.03
2018-01-12T23:18:50.805Z,23.40
2018-01-12T23:21:16.948Z,21.90
2018-01-12T23:23:43.275Z,23.37
2018-01-12T23:26:09.655Z,21.33
2018-01-12T23:28:35.876Z,22.17
2018-01-12T23:31:02.035Z,22.80
2018-01-12T23:33:28.182Z,22.80
2018-01-12T23:35:55.240Z,21.27
2018-01-12T23:38:22.209Z,22.53
2018-01-12T23:40:48.402Z,22.37
2018-01-12T23:43:15.366Z,22.33
2018-01-12T23:45:41.571Z,23.87
2018-01-12T23:48:08.531Z,22.80
2018-01-12T23:50:35.529Z,23.57
2018-01-12T23:53:01.814Z,20.97
2018-01-12T23:55:27.960Z,24.30
2018-01-12T23:57:54.136Z,19.90
